Time;durP1;ratioP1;P1;durP2;ratioP2;P2;SDS_P1;SDS_P2;PMS_P1;PMS_P2;Temp;Humidity;BMP_temperature;BMP_pressure;BME280_temperature;BME280_humidity;BME280_pressure;Samples;Min_cycle;Max_cycle;Signal;HPM_P1;HPM_P2
2021/04/25 00:01:50;;;;;;;0.10;0.10;;;;;;;;;;4990923;28;20087;-81
2021/04/25 00:04:15;;;;;;;0.10;0.10;;;;;;;;;;4997547;28;20300;-79
2021/04/25 00:06:43;;;;;;;0.10;0.10;;;;;;;;;;4987697;28;20057;-76
2021/04/25 00:09:09;;;;;;;0.10;0.10;;;;;;;;;;4984714;28;20034;-78
2021/04/25 00:11:34;;;;;;;0.10;0.10;;;;;;;;;;4994791;28;20011;-84
2021/04/25 00:13:59;;;;;;;0.10;0.10;;;;;;;;;;5006832;28;20031;-82
2021/04/25 00:16:26;;;;;;;0.20;0.20;;;;;;;;;;5006467;28;20015;-83
2021/04/25 00:18:51;;;;;;;0.10;0.10;;;;;;;;;;5008975;28;20358;-83
2021/04/25 00:21:19;;;;;;;0.20;0.20;;;;;;;;;;5011451;28;20018;-84
2021/04/25 00:23:44;;;;;;;0.10;0.10;;;;;;;;;;4992292;28;20369;-84
2021/04/25 00:26:09;;;;;;;0.10;0.10;;;;;;;;;;5009074;28;20019;-84
2021/04/25 00:33:45;;;;;;;0.20;0.20;;;;;;;;;;6078963;23;20013;-77
2021/04/25 00:36:10;;;;;;;0.15;0.15;;;;;;;;;;5059985;28;20029;-82
2021/04/25 00:59:15;;;;;;;0.10;0.10;;;;;;;;;;5777812;22;20076;-84
2021/04/25 01:01:41;;;;;;;0.10;0.10;;;;;;;;;;5040879;28;20049;-82
2021/04/25 01:04:06;;;;;;;0.10;0.10;;;;;;;;;;5040110;28;20355;-83
2021/04/25 01:06:31;;;;;;;0.10;0.10;;;;;;;;;;5035651;28;20048;-84
2021/04/25 01:08:56;;;;;;;0.10;0.10;;;;;;;;;;5053851;28;20017;-84
2021/04/25 01:11:21;;;;;;;0.10;0.10;;;;;;;;;;5038353;28;20017;-84
2021/04/25 01:13:51;;;;;;;0.10;0.10;;;;;;;;;;5017129;28;20276;-84
2021/04/25 01:16:16;;;;;;;0.10;0.10;;;;;;;;;;5037904;28;20277;-82
2021/04/25 01:18:42;;;;;;;0.20;0.20;;;;;;;;;;5025181;28;20021;-84
2021/04/25 01:21:07;;;;;;;0.20;0.20;;;;;;;;;;5017072;28;19998;-83
2021/04/25 01:23:32;;;;;;;0.20;0.20;;;;;;;;;;5035695;28;20260;-83
2021/04/25 01:25:57;;;;;;;0.10;0.10;;;;;;;;;;5017382;28;20264;-83
2021/04/25 01:28:22;;;;;;;0.10;0.10;;;;;;;;;;5037242;28;20022;-82
2021/04/25 01:30:48;;;;;;;0.20;0.20;;;;;;;;;;5030711;28;20269;-82
2021/04/25 01:33:13;;;;;;;0.10;0.10;;;;;;;;;;5018850;28;20014;-82
2021/04/25 01:35:38;;;;;;;0.10;0.10;;;;;;;;;;5030370;28;20012;-82
2021/04/25 01:38:03;;;;;;;0.10;0.10;;;;;;;;;;5013008;28;20013;-83
2021/04/25 01:40:30;;;;;;;0.13;0.13;;;;;;;;;;5039880;28;20272;-81
2021/04/25 01:42:55;;;;;;;0.17;0.17;;;;;;;;;;5031780;28;20259;-83
2021/04/25 01:45:21;;;;;;;0.10;0.10;;;;;;;;;;5015641;28;20042;-83
2021/04/25 01:47:50;;;;;;;0.20;0.20;;;;;;;;;;5020824;28;20017;-82
2021/04/25 01:50:15;;;;;;;0.20;0.20;;;;;;;;;;5017482;28;20037;-83
2021/04/25 01:52:41;;;;;;;0.20;0.20;;;;;;;;;;5035090;28;20014;-83
2021/04/25 01:55:06;;;;;;;0.10;0.10;;;;;;;;;;5023378;28;20014;-82
2021/04/25 01:57:31;;;;;;;0.10;0.10;;;;;;;;;;5032672;28;20065;-83
2021/04/25 01:59:56;;;;;;;0.20;0.20;;;;;;;;;;5006051;28;20095;-83
2021/04/25 02:02:22;;;;;;;0.20;0.20;;;;;;;;;;4986449;28;20019;-82
2021/04/25 02:04:47;;;;;;;0.20;0.20;;;;;;;;;;5011071;28;20265;-81
2021/04/25 02:07:12;;;;;;;0.10;0.10;;;;;;;;;;4994159;28;20034;-81
2021/04/25 02:09:37;;;;;;;0.10;0.10;;;;;;;;;;4990674;28;20286;-82
2021/04/25 02:12:03;;;;;;;0.10;0.10;;;;;;;;;;5007102;28;20285;-83
2021/04/25 02:14:29;;;;;;;0.15;0.15;;;;;;;;;;5012211;28;20305;-83
2021/04/25 02:16:54;;;;;;;0.20;0.20;;;;;;;;;;5013558;28;20091;-82
2021/04/25 02:19:19;;;;;;;0.10;0.10;;;;;;;;;;5006565;28;20034;-81
2021/04/25 02:21:44;;;;;;;0.20;0.20;;;;;;;;;;5006175;28;20007;-83
2021/04/25 02:24:09;;;;;;;0.20;0.20;;;;;;;;;;5009278;28;20026;-83
2021/04/25 02:26:35;;;;;;;0.20;0.20;;;;;;;;;;5006329;28;20101;-81
2021/04/25 02:29:00;;;;;;;0.20;0.20;;;;;;;;;;4987790;28;20016;-82
2021/04/25 02:31:25;;;;;;;0.20;0.20;;;;;;;;;;5019779;28;20005;-81
2021/04/25 02:33:50;;;;;;;0.20;0.20;;;;;;;;;;4999759;28;20049;-81
2021/04/25 02:36:16;;;;;;;0.20;0.20;;;;;;;;;;5011038;28;19999;-81
2021/04/25 02:38:41;;;;;;;0.20;0.20;;;;;;;;;;5010747;28;20101;-81
2021/04/25 02:41:06;;;;;;;0.20;0.20;;;;;;;;;;5013004;28;20046;-81
2021/04/25 02:43:31;;;;;;;0.15;0.15;;;;;;;;;;5011656;28;20294;-83
2021/04/25 02:45:56;;;;;;;0.20;0.20;;;;;;;;;;4992258;28;20011;-81
2021/04/25 02:48:22;;;;;;;0.20;0.20;;;;;;;;;;4993576;28;20022;-81
2021/04/25 02:50:47;;;;;;;0.20;0.20;;;;;;;;;;4983256;28;20035;-81
2021/04/25 02:53:12;;;;;;;0.20;0.20;;;;;;;;;;4999285;28;20018;-82
2021/04/25 02:55:37;;;;;;;0.20;0.20;;;;;;;;;;5009300;28;20262;-82
2021/04/25 02:58:03;;;;;;;0.20;0.20;;;;;;;;;;5010214;28;20030;-83
2021/04/25 03:00:28;;;;;;;0.20;0.20;;;;;;;;;;5010325;28;20045;-83
2021/04/25 03:02:53;;;;;;;0.20;0.20;;;;;;;;;;5011415;28;20010;-85
2021/04/25 03:05:18;;;;;;;0.20;0.20;;;;;;;;;;5001295;28;20007;-82
2021/04/25 03:07:44;;;;;;;0.20;0.20;;;;;;;;;;5017738;28;20030;-83
2021/04/25 03:10:10;;;;;;;0.20;0.20;;;;;;;;;;5017699;28;20300;-82
2021/04/25 03:12:35;;;;;;;0.20;0.20;;;;;;;;;;5017391;28;20010;-82
2021/04/25 03:15:00;;;;;;;0.20;0.20;;;;;;;;;;5017384;28;20030;-82
2021/04/25 03:17:26;;;;;;;0.20;0.20;;;;;;;;;;4999682;28;20025;-82
2021/04/25 03:19:51;;;;;;;0.20;0.20;;;;;;;;;;5015979;28;20026;-81
2021/04/25 03:22:16;;;;;;;0.10;0.10;;;;;;;;;;4998090;28;20024;-81
2021/04/25 03:24:41;;;;;;;0.20;0.20;;;;;;;;;;5013456;28;20246;-81
2021/04/25 03:27:06;;;;;;;0.20;0.20;;;;;;;;;;4997948;28;20022;-81
2021/04/25 03:29:32;;;;;;;0.20;0.20;;;;;;;;;;5013338;28;20092;-82
2021/04/25 03:31:57;;;;;;;0.10;0.10;;;;;;;;;;4996159;28;20341;-80
2021/04/25 03:34:22;;;;;;;0.20;0.20;;;;;;;;;;5011521;28;20279;-80
2021/04/25 03:36:47;;;;;;;0.20;0.20;;;;;;;;;;5004113;28;20098;-80
2021/04/25 03:39:13;;;;;;;0.20;0.20;;;;;;;;;;5012715;28;20026;-82
2021/04/25 03:41:39;;;;;;;0.20;0.20;;;;;;;;;;5001750;28;20313;-83
2021/04/25 03:44:04;;;;;;;0.20;0.20;;;;;;;;;;5018133;28;20021;-82
2021/04/25 03:46:29;;;;;;;0.20;0.20;;;;;;;;;;5017837;28;20034;-83
2021/04/25 03:48:54;;;;;;;0.20;0.20;;;;;;;;;;5011479;28;20026;-83
2021/04/25 03:51:19;;;;;;;0.20;0.20;;;;;;;;;;5027820;28;20049;-82
2021/04/25 03:53:45;;;;;;;0.20;0.20;;;;;;;;;;5017326;28;20006;-82
2021/04/25 03:56:10;;;;;;;0.20;0.20;;;;;;;;;;5021636;28;20288;-83
2021/04/25 03:58:35;;;;;;;0.10;0.10;;;;;;;;;;4999488;28;20297;-79
2021/04/25 04:01:00;;;;;;;0.20;0.20;;;;;;;;;;5059692;28;20071;-83
2021/04/25 04:03:25;;;;;;;0.20;0.20;;;;;;;;;;5031478;28;20009;-81
2021/04/25 04:05:51;;;;;;;0.20;0.20;;;;;;;;;;5036116;28;20279;-82
2021/04/25 04:08:16;;;;;;;0.20;0.20;;;;;;;;;;5037854;28;20257;-83
2021/04/25 04:10:41;;;;;;;0.17;0.17;;;;;;;;;;5034073;28;20089;-83
2021/04/25 04:13:06;;;;;;;0.20;0.20;;;;;;;;;;5055600;28;20268;-83
2021/04/25 04:15:31;;;;;;;0.20;0.20;;;;;;;;;;5024809;28;20276;-83
2021/04/25 04:17:57;;;;;;;0.20;0.20;;;;;;;;;;5020410;28;20013;-84
2021/04/25 04:20:22;;;;;;;0.20;0.20;;;;;;;;;;5037659;28;20374;-82
2021/04/25 04:22:47;;;;;;;0.20;0.20;;;;;;;;;;5028727;28;20005;-83
2021/04/25 04:30:23;;;;;;;0.20;0.20;;;;;;;;;;5999157;22;20056;-80
2021/04/25 04:32:48;;;;;;;0.20;0.20;;;;;;;;;;5078872;28;20025;-81
2021/04/25 04:35:13;;;;;;;0.20;0.20;;;;;;;;;;5048847;28;20416;-79
2021/04/25 04:37:39;;;;;;;0.20;0.20;;;;;;;;;;5050688;28;20017;-78
2021/04/25 04:40:04;;;;;;;0.20;0.20;;;;;;;;;;5058593;28;20045;-79
2021/04/25 04:42:29;;;;;;;0.20;0.20;;;;;;;;;;5051123;28;20271;-78
2021/04/25 04:44:57;;;;;;;0.20;0.20;;;;;;;;;;5047529;28;20029;-77
2021/04/25 04:47:22;;;;;;;0.20;0.20;;;;;;;;;;5032020;28;20352;-78
2021/04/25 04:49:47;;;;;;;0.20;0.20;;;;;;;;;;5041675;28;20029;-79
2021/04/25 04:52:12;;;;;;;0.20;0.20;;;;;;;;;;5063731;28;20344;-81
2021/04/25 04:54:38;;;;;;;0.20;0.20;;;;;;;;;;5065148;28;20311;-80
2021/04/25 04:57:03;;;;;;;0.20;0.20;;;;;;;;;;5066388;28;20695;-80
2021/04/25 04:59:28;;;;;;;0.20;0.20;;;;;;;;;;5066681;28;20036;-81
2021/04/25 05:01:53;;;;;;;0.20;0.20;;;;;;;;;;5045173;28;20006;-81
2021/04/25 05:04:19;;;;;;;0.20;0.20;;;;;;;;;;5067879;28;20013;-80
2021/04/25 05:06:44;;;;;;;0.20;0.20;;;;;;;;;;5062902;28;20067;-80
2021/04/25 05:09:09;;;;;;;0.20;0.20;;;;;;;;;;5067823;28;20021;-80
2021/04/25 05:11:34;;;;;;;0.20;0.20;;;;;;;;;;5052378;28;20014;-79
2021/04/25 05:14:00;;;;;;;0.20;0.20;;;;;;;;;;5071820;28;20632;-79
2021/04/25 05:16:26;;;;;;;0.20;0.20;;;;;;;;;;5074990;28;20016;-83
2021/04/25 05:18:51;;;;;;;0.20;0.20;;;;;;;;;;5075124;28;20306;-80
2021/04/25 05:21:16;;;;;;;0.20;0.20;;;;;;;;;;5050889;28;20013;-80
2021/04/25 05:23:41;;;;;;;0.20;0.20;;;;;;;;;;5055318;28;20275;-82
2021/04/25 05:26:06;;;;;;;0.20;0.20;;;;;;;;;;5053205;28;20027;-81
2021/04/25 05:28:32;;;;;;;0.20;0.20;;;;;;;;;;5056163;28;20267;-82
2021/04/25 05:30:57;;;;;;;0.20;0.20;;;;;;;;;;5076447;28;20093;-82
2021/04/25 05:33:25;;;;;;;0.20;0.20;;;;;;;;;;5071140;28;20028;-81
2021/04/25 05:35:50;;;;;;;0.20;0.20;;;;;;;;;;5077038;28;20037;-83
2021/04/25 05:38:15;;;;;;;0.20;0.20;;;;;;;;;;5056027;28;20108;-78
2021/04/25 05:40:40;;;;;;;0.20;0.20;;;;;;;;;;5050526;28;20272;-78
2021/04/25 05:43:05;;;;;;;0.20;0.20;;;;;;;;;;5065163;28;20280;-82
2021/04/25 05:45:30;;;;;;;0.30;0.30;;;;;;;;;;5068455;28;20278;-81
2021/04/25 05:47:56;;;;;;;0.20;0.20;;;;;;;;;;5059352;28;20255;-81
2021/04/25 05:50:22;;;;;;;0.20;0.20;;;;;;;;;;5071295;28;20252;-81
2021/04/25 05:52:47;;;;;;;0.20;0.20;;;;;;;;;;5077932;28;20025;-82
2021/04/25 05:55:13;;;;;;;0.20;0.20;;;;;;;;;;5076450;28;20073;-80
2021/04/25 05:57:38;;;;;;;0.20;0.20;;;;;;;;;;5072251;28;20025;-80
2021/04/25 06:00:04;;;;;;;0.20;0.20;;;;;;;;;;5068505;28;20032;-81
2021/04/25 06:02:32;;;;;;;0.20;0.20;;;;;;;;;;5051045;28;20029;-80
2021/04/25 06:04:57;;;;;;;0.20;0.20;;;;;;;;;;5051460;28;20051;-80
2021/04/25 06:07:22;;;;;;;0.20;0.20;;;;;;;;;;5075542;28;20021;-80
2021/04/25 06:09:48;;;;;;;0.20;0.20;;;;;;;;;;5055932;28;20020;-80
2021/04/25 06:12:13;;;;;;;0.20;0.20;;;;;;;;;;5070188;28;20059;-80
2021/04/25 06:14:38;;;;;;;0.20;0.20;;;;;;;;;;5051256;28;20291;-78
2021/04/25 06:17:03;;;;;;;0.20;0.20;;;;;;;;;;5047769;28;20466;-78
2021/04/25 06:19:29;;;;;;;0.20;0.20;;;;;;;;;;5068417;28;20040;-78
2021/04/25 06:21:54;;;;;;;0.20;0.20;;;;;;;;;;5057582;28;20264;-80
2021/04/25 06:24:19;;;;;;;0.20;0.20;;;;;;;;;;5069111;28;20026;-78
2021/04/25 06:26:44;;;;;;;0.20;0.20;;;;;;;;;;5065417;28;20315;-79
2021/04/25 06:29:09;;;;;;;0.20;0.20;;;;;;;;;;5064864;28;20276;-79
2021/04/25 06:31:35;;;;;;;0.20;0.20;;;;;;;;;;5043970;28;20700;-78
2021/04/25 06:34:00;;;;;;;0.10;0.10;;;;;;;;;;5034199;28;20020;-78
2021/04/25 06:36:25;;;;;;;0.20;0.20;;;;;;;;;;5061356;28;20271;-79
2021/04/25 06:38:51;;;;;;;0.20;0.20;;;;;;;;;;5048635;28;20009;-81
2021/04/25 06:41:16;;;;;;;0.20;0.20;;;;;;;;;;5066708;28;20009;-80
2021/04/25 06:43:41;;;;;;;0.20;0.20;;;;;;;;;;5067420;28;20032;-82
2021/04/25 06:46:06;;;;;;;0.20;0.20;;;;;;;;;;5056496;28;20291;-84
2021/04/25 06:48:31;;;;;;;0.20;0.20;;;;;;;;;;5058329;28;20718;-82
2021/04/25 06:50:57;;;;;;;0.20;0.20;;;;;;;;;;5070776;28;20029;-83
2021/04/25 06:53:22;;;;;;;0.20;0.20;;;;;;;;;;5045167;28;20257;-83
2021/04/25 06:55:47;;;;;;;0.20;0.20;;;;;;;;;;5072134;28;20276;-83
2021/04/25 06:58:12;;;;;;;0.20;0.20;;;;;;;;;;5058075;28;20005;-82
2021/04/25 07:00:38;;;;;;;0.20;0.20;;;;;;;;;;5050200;28;20084;-83
2021/04/25 07:03:03;;;;;;;0.20;0.20;;;;;;;;;;5072000;28;20335;-81
2021/04/25 07:05:28;;;;;;;0.20;0.20;;;;;;;;;;5070602;28;20029;-79
2021/04/25 07:07:53;;;;;;;0.20;0.20;;;;;;;;;;5067521;28;20021;-80
2021/04/25 07:10:19;;;;;;;0.20;0.20;;;;;;;;;;5072634;28;20013;-80
2021/04/25 07:12:44;;;;;;;0.10;0.10;;;;;;;;;;5054516;28;20055;-79
2021/04/25 07:15:09;;;;;;;0.20;0.20;;;;;;;;;;5065507;28;20016;-83
2021/04/25 07:17:35;;;;;;;0.20;0.20;;;;;;;;;;5067607;28;20104;-81
2021/04/25 07:20:00;;;;;;;0.20;0.20;;;;;;;;;;5077648;28;20036;-82
2021/04/25 07:22:25;;;;;;;0.17;0.17;;;;;;;;;;5075300;28;20017;-80
2021/04/25 07:24:50;;;;;;;0.20;0.20;;;;;;;;;;5078146;28;20025;-82
2021/04/25 07:27:19;;;;;;;0.20;0.20;;;;;;;;;;5064521;28;20071;-82
2021/04/25 07:29:45;;;;;;;0.20;0.20;;;;;;;;;;5063260;28;20070;-79
2021/04/25 07:32:10;;;;;;;0.20;0.20;;;;;;;;;;5062608;28;20036;-79
2021/04/25 07:34:35;;;;;;;0.20;0.20;;;;;;;;;;5077176;28;20013;-83
2021/04/25 07:37:04;;;;;;;0.20;0.20;;;;;;;;;;5064601;28;20059;-83
2021/04/25 07:39:29;;;;;;;0.20;0.20;;;;;;;;;;5050718;28;20283;-81
2021/04/25 07:41:57;;;;;;;0.20;0.20;;;;;;;;;;5073956;28;20012;-82
2021/04/25 07:44:22;;;;;;;0.17;0.17;;;;;;;;;;5065788;28;20001;-82
2021/04/25 07:46:47;;;;;;;0.20;0.20;;;;;;;;;;5047979;28;20039;-82
2021/04/25 07:49:13;;;;;;;0.20;0.20;;;;;;;;;;5062528;28;20052;-79
2021/04/25 07:51:38;;;;;;;0.20;0.20;;;;;;;;;;5077499;28;20321;-82
2021/04/25 07:54:03;;;;;;;0.10;0.10;;;;;;;;;;5061777;28;20009;-83
2021/04/25 07:56:29;;;;;;;0.20;0.20;;;;;;;;;;5079716;28;20017;-80
2021/04/25 07:58:54;;;;;;;0.10;0.10;;;;;;;;;;5050458;28;20103;-77
2021/04/25 08:01:19;;;;;;;0.20;0.20;;;;;;;;;;5067563;28;20354;-76
2021/04/25 08:03:44;;;;;;;0.10;0.10;;;;;;;;;;5048576;28;20016;-76
2021/04/25 08:06:11;;;;;;;0.10;0.10;;;;;;;;;;5053559;28;20017;-79
2021/04/25 08:08:36;;;;;;;0.20;0.20;;;;;;;;;;5069398;28;20030;-78
2021/04/25 08:11:01;;;;;;;0.17;0.17;;;;;;;;;;5067109;28;20056;-79
2021/04/25 08:13:27;;;;;;;0.10;0.10;;;;;;;;;;5067924;28;20037;-81
2021/04/25 08:15:53;;;;;;;0.15;0.15;;;;;;;;;;5076433;28;20031;-81
2021/04/25 08:18:18;;;;;;;0.13;0.13;;;;;;;;;;5076686;28;20052;-81
2021/04/25 08:20:43;;;;;;;0.20;0.20;;;;;;;;;;5078821;28;20029;-80
2021/04/25 08:23:08;;;;;;;0.20;0.20;;;;;;;;;;5068215;28;20419;-78
2021/04/25 08:25:34;;;;;;;0.10;0.10;;;;;;;;;;5046776;28;20029;-81
2021/04/25 08:27:59;;;;;;;0.10;0.10;;;;;;;;;;5062088;28;20092;-79
2021/04/25 08:30:24;;;;;;;0.10;0.10;;;;;;;;;;5066876;28;21068;-78
2021/04/25 08:32:49;;;;;;;0.17;0.17;;;;;;;;;;5076503;28;20027;-79
2021/04/25 08:35:15;;;;;;;0.20;0.20;;;;;;;;;;5074119;28;20029;-79
2021/04/25 08:37:40;;;;;;;0.10;0.10;;;;;;;;;;5071944;28;20017;-78
2021/04/25 08:40:07;;;;;;;0.10;0.10;;;;;;;;;;5048418;28;20048;-78
2021/04/25 08:42:33;;;;;;;0.10;0.10;;;;;;;;;;5067124;28;20021;-77
2021/04/25 08:44:58;;;;;;;0.10;0.10;;;;;;;;;;5035707;28;20047;-77
2021/04/25 08:47:24;;;;;;;0.10;0.10;;;;;;;;;;5050516;28;20042;-77
2021/04/25 08:49:49;;;;;;;0.13;0.13;;;;;;;;;;5046548;28;20040;-77
2021/04/25 08:52:14;;;;;;;0.10;0.10;;;;;;;;;;5035929;28;20092;-78
2021/04/25 08:54:40;;;;;;;0.10;0.10;;;;;;;;;;5054793;28;20025;-76
2021/04/25 08:57:05;;;;;;;0.10;0.10;;;;;;;;;;5048591;28;20294;-76
2021/04/25 08:59:30;;;;;;;0.10;0.10;;;;;;;;;;5048455;28;20422;-76
2021/04/25 09:01:55;;;;;;;0.10;0.10;;;;;;;;;;5044865;28;20025;-75
2021/04/25 09:04:21;;;;;;;0.10;0.10;;;;;;;;;;5048676;28;20024;-77
2021/04/25 09:06:58;;;;;;;0.10;0.10;;;;;;;;;;5053172;28;20024;-80
2021/04/25 09:09:23;;;;;;;0.10;0.10;;;;;;;;;;5072591;28;20275;-80
2021/04/25 09:11:49;;;;;;;0.10;0.10;;;;;;;;;;5070209;28;20052;-79
2021/04/25 09:14:18;;;;;;;0.10;0.10;;;;;;;;;;5076431;28;19993;-80
2021/04/25 09:16:45;;;;;;;0.10;0.10;;;;;;;;;;5050772;28;20021;-80
2021/04/25 09:19:10;;;;;;;0.10;0.10;;;;;;;;;;5077710;28;20080;-80
2021/04/25 09:21:50;;;;;;;0.10;0.10;;;;;;;;;;5049473;28;20047;-78
2021/04/25 09:24:20;;;;;;;0.10;0.10;;;;;;;;;;5058909;28;20038;-77
2021/04/25 09:26:45;;;;;;;0.10;0.10;;;;;;;;;;5066785;28;20025;-81
2021/04/25 09:29:10;;;;;;;0.10;0.10;;;;;;;;;;5074287;28;20013;-81
2021/04/25 09:31:39;;;;;;;0.10;0.10;;;;;;;;;;5078962;28;20052;-80
2021/04/25 09:34:04;;;;;;;0.10;0.10;;;;;;;;;;5070696;28;20255;-81
2021/04/25 09:36:29;;;;;;;0.10;0.10;;;;;;;;;;5067496;28;20077;-80
2021/04/25 09:39:07;;;;;;;0.10;0.10;;;;;;;;;;5072654;28;20381;-80
2021/04/25 09:41:32;;;;;;;0.10;0.10;;;;;;;;;;5052026;28;20019;-81
2021/04/25 09:43:58;;;;;;;0.10;0.10;;;;;;;;;;5635540;22;20100;-81
2021/04/25 09:46:26;;;;;;;0.10;0.10;;;;;;;;;;5052932;28;20036;-82
2021/04/25 09:48:52;;;;;;;0.10;0.10;;;;;;;;;;5060506;28;20028;-81
2021/04/25 09:51:18;;;;;;;0.10;0.10;;;;;;;;;;5072211;28;20036;-81
2021/04/25 09:53:49;;;;;;;0.10;0.10;;;;;;;;;;5056663;28;20018;-82
2021/04/25 09:56:14;;;;;;;0.10;0.10;;;;;;;;;;5066823;28;20013;-82
2021/04/25 09:58:58;;;;;;;0.10;0.10;;;;;;;;;;5080841;28;20040;-81
2021/04/25 10:01:26;;;;;;;0.10;0.10;;;;;;;;;;5073810;28;20016;-82
2021/04/25 10:03:51;;;;;;;0.10;0.10;;;;;;;;;;5069317;28;20021;-81
2021/04/25 10:06:19;;;;;;;0.10;0.10;;;;;;;;;;5067031;28;20028;-82
2021/04/25 10:08:45;;;;;;;0.10;0.10;;;;;;;;;;5065593;28;20266;-81
2021/04/25 10:11:10;;;;;;;0.10;0.10;;;;;;;;;;5052266;28;20044;-82
2021/04/25 10:13:44;;;;;;;0.10;0.10;;;;;;;;;;5070413;28;20068;-80
2021/04/25 10:16:10;;;;;;;0.00;0.00;;;;;;;;;;5049855;28;20017;-79
2021/04/25 10:18:35;;;;;;;0.10;0.10;;;;;;;;;;5038589;28;20515;-79
2021/04/25 10:21:00;;;;;;;0.10;0.10;;;;;;;;;;5035590;28;20052;-77
2021/04/25 10:23:26;;;;;;;0.10;0.10;;;;;;;;;;5062427;28;20295;-80
2021/04/25 10:25:51;;;;;;;0.10;0.10;;;;;;;;;;5056145;28;20291;-78
2021/04/25 10:28:24;;;;;;;0.00;0.00;;;;;;;;;;5051180;28;20303;-77
2021/04/25 10:30:49;;;;;;;0.00;0.00;;;;;;;;;;5048348;28;20036;-79
2021/04/25 10:33:15;;;;;;;0.00;0.00;;;;;;;;;;5058556;28;20377;-68
2021/04/25 10:35:53;;;;;;;0.00;0.00;;;;;;;;;;5025743;28;20013;-70
2021/04/25 10:38:18;;;;;;;0.00;0.00;;;;;;;;;;5028300;28;20021;-67
2021/04/25 10:40:47;;;;;;;0.00;0.00;;;;;;;;;;5050633;28;20358;-72
2021/04/25 10:43:13;;;;;;;0.00;0.00;;;;;;;;;;5028823;28;20033;-68
2021/04/25 10:45:55;;;;;;;0.00;0.00;;;;;;;;;;5033221;28;20506;-68
2021/04/25 10:48:21;;;;;;;0.00;0.00;;;;;;;;;;5032161;28;20032;-68
2021/04/25 10:50:48;;;;;;;0.00;0.00;;;;;;;;;;5043731;28;20021;-68
2021/04/25 10:53:18;;;;;;;0.00;0.00;;;;;;;;;;5047761;28;20021;-68
2021/04/25 10:55:45;;;;;;;0.00;0.00;;;;;;;;;;5044269;28;20016;-68
2021/04/25 10:58:10;;;;;;;0.00;0.00;;;;;;;;;;5045632;28;20067;-68
2021/04/25 11:00:42;;;;;;;0.00;0.00;;;;;;;;;;5042018;28;20025;-68
2021/04/25 11:03:07;;;;;;;0.00;0.00;;;;;;;;;;5045585;28;20028;-68
2021/04/25 11:05:39;;;;;;;0.00;0.00;;;;;;;;;;5042253;28;20017;-68
2021/04/25 11:08:14;;;;;;;0.00;0.00;;;;;;;;;;5043429;28;20037;-69
2021/04/25 11:10:49;;;;;;;0.00;0.00;;;;;;;;;;5045088;28;20557;-69
2021/04/25 11:13:44;;;;;;;0.00;0.00;;;;;;;;;;5043150;28;20021;-71
2021/04/25 11:16:09;;;;;;;0.00;0.00;;;;;;;;;;5037701;28;20025;-70
2021/04/25 11:18:44;;;;;;;0.00;0.00;;;;;;;;;;5037272;28;20025;-70
2021/04/25 11:21:31;;;;;;;0.00;0.00;;;;;;;;;;5043863;28;20072;-70
2021/04/25 11:23:59;;;;;;;0.00;0.00;;;;;;;;;;5041753;28;20032;-68
2021/04/25 11:26:33;;;;;;;0.00;0.00;;;;;;;;;;5044652;28;20487;-68
2021/04/25 11:29:01;;;;;;;0.00;0.00;;;;;;;;;;5042378;28;20027;-68
2021/04/25 11:34:31;;;;;;;0.00;0.00;;;;;;;;;;5038344;28;20025;-69
2021/04/25 11:37:03;;;;;;;0.00;0.00;;;;;;;;;;5036820;28;20022;-70
2021/04/25 11:39:29;;;;;;;0.00;0.00;;;;;;;;;;5043547;28;20036;-69
2021/04/25 11:41:54;;;;;;;0.00;0.00;;;;;;;;;;5039314;28;20029;-68
2021/04/25 11:44:25;;;;;;;0.00;0.00;;;;;;;;;;5023670;28;20076;-70
2021/04/25 11:46:51;;;;;;;0.00;0.00;;;;;;;;;;5040766;28;20839;-68
2021/04/25 11:49:32;;;;;;;0.00;0.00;;;;;;;;;;5039539;28;20044;-69
2021/04/25 11:52:13;;;;;;;0.00;0.00;;;;;;;;;;5043372;28;20373;-68
2021/04/25 11:54:39;;;;;;;0.00;0.00;;;;;;;;;;5041820;28;20025;-69
2021/04/25 11:57:08;;;;;;;0.00;0.00;;;;;;;;;;5023849;28;20040;-69
2021/04/25 11:59:33;;;;;;;0.00;0.00;;;;;;;;;;5044247;28;20076;-69
2021/04/25 12:02:10;;;;;;;0.00;0.00;;;;;;;;;;5045903;28;20029;-67
2021/04/25 12:04:45;;;;;;;0.00;0.00;;;;;;;;;;5026738;28;20279;-68
2021/04/25 12:07:11;;;;;;;0.00;0.00;;;;;;;;;;5044542;28;20481;-67
2021/04/25 12:09:40;;;;;;;0.00;0.00;;;;;;;;;;5043804;28;20051;-67
2021/04/25 12:12:06;;;;;;;0.00;0.00;;;;;;;;;;5032542;28;20095;-66
2021/04/25 12:14:31;;;;;;;0.00;0.00;;;;;;;;;;5051501;28;20474;-67
2021/04/25 12:17:12;;;;;;;0.00;0.00;;;;;;;;;;5042727;28;20025;-66
2021/04/25 12:19:37;;;;;;;0.00;0.00;;;;;;;;;;5045721;28;20025;-68
2021/04/25 12:22:02;;;;;;;0.00;0.00;;;;;;;;;;5035642;28;20351;-69
2021/04/25 12:24:28;;;;;;;0.00;0.00;;;;;;;;;;5035271;28;20017;-68
2021/04/25 12:26:53;;;;;;;0.00;0.00;;;;;;;;;;5043381;28;20025;-68
2021/04/25 12:29:37;;;;;;;0.00;0.00;;;;;;;;;;5034391;28;20021;-69
2021/04/25 12:32:02;;;;;;;;;;;;;;;;;;5028835;28;20017;-68
2021/04/25 12:34:31;;;;;;;0.00;0.00;;;;;;;;;;5043839;28;19931;-68
2021/04/25 12:36:58;;;;;;;0.00;0.00;;;;;;;;;;5043907;28;20014;-68
2021/04/25 12:39:23;;;;;;;0.00;0.00;;;;;;;;;;5025375;28;20107;-68
2021/04/25 12:41:49;;;;;;;0.00;0.00;;;;;;;;;;5026408;28;20561;-68
2021/04/25 12:44:15;;;;;;;0.00;0.00;;;;;;;;;;5041998;28;20049;-69
2021/04/25 12:46:50;;;;;;;0.00;0.00;;;;;;;;;;5042024;28;20119;-70
2021/04/25 12:49:16;;;;;;;0.00;0.00;;;;;;;;;;5025953;28;20083;-69
2021/04/25 12:51:41;;;;;;;0.00;0.00;;;;;;;;;;5026802;28;20021;-70
2021/04/25 12:54:11;;;;;;;0.00;0.00;;;;;;;;;;5044276;28;20273;-69
2021/04/25 12:56:39;;;;;;;0.00;0.00;;;;;;;;;;5042676;28;20053;-68
2021/04/25 12:59:20;;;;;;;0.00;0.00;;;;;;;;;;5049046;28;20028;-68
2021/04/25 13:01:58;;;;;;;0.10;0.00;;;;;;;;;;5048080;28;20023;-68
2021/04/25 13:04:26;;;;;;;0.00;0.00;;;;;;;;;;5043123;28;20044;-69
2021/04/25 13:06:51;;;;;;;0.00;0.00;;;;;;;;;;5046371;28;20029;-68
2021/04/25 13:09:17;;;;;;;0.00;0.00;;;;;;;;;;5040981;28;20039;-68
2021/04/25 13:11:42;;;;;;;0.00;0.00;;;;;;;;;;5029053;28;20027;-68
2021/04/25 13:14:16;;;;;;;0.00;0.00;;;;;;;;;;5041016;28;20037;-68
2021/04/25 13:16:42;;;;;;;0.00;0.00;;;;;;;;;;5049336;28;20144;-68
2021/04/25 13:19:09;;;;;;;0.00;0.00;;;;;;;;;;5047328;28;20083;-68
2021/04/25 13:21:38;;;;;;;0.00;0.00;;;;;;;;;;5045885;28;20033;-68
2021/04/25 13:24:03;;;;;;;0.00;0.00;;;;;;;;;;5044198;28;20017;-69
2021/04/25 13:26:29;;;;;;;0.00;0.00;;;;;;;;;;5045234;28;20335;-69
2021/04/25 13:28:54;;;;;;;0.00;0.00;;;;;;;;;;5047242;28;20060;-68
2021/04/25 13:31:20;;;;;;;0.00;0.00;;;;;;;;;;5042357;28;20498;-70
2021/04/25 13:33:46;;;;;;;0.00;0.00;;;;;;;;;;5039818;28;20036;-71
2021/04/25 13:36:11;;;;;;;0.00;0.00;;;;;;;;;;5043073;28;20398;-71
2021/04/25 13:38:36;;;;;;;0.00;0.00;;;;;;;;;;5044199;28;20097;-70
2021/04/25 13:41:02;;;;;;;0.00;0.00;;;;;;;;;;5040546;28;20275;-70
2021/04/25 13:43:27;;;;;;;0.00;0.00;;;;;;;;;;5040203;28;20013;-70
2021/04/25 13:45:52;;;;;;;0.00;0.00;;;;;;;;;;5025872;28;20052;-70
2021/04/25 13:48:18;;;;;;;0.00;0.00;;;;;;;;;;5044691;28;20020;-70
2021/04/25 13:50:44;;;;;;;0.00;0.00;;;;;;;;;;5042596;28;20099;-71
2021/04/25 13:53:09;;;;;;;0.00;0.00;;;;;;;;;;5040401;28;20033;-71
2021/04/25 13:55:34;;;;;;;0.00;0.00;;;;;;;;;;5041603;28;20309;-71
2021/04/25 13:57:59;;;;;;;0.00;0.00;;;;;;;;;;5041470;28;20539;-70
2021/04/25 14:00:27;;;;;;;0.00;0.00;;;;;;;;;;5041558;28;20841;-70
2021/04/25 14:02:52;;;;;;;0.00;0.00;;;;;;;;;;5040582;28;20067;-71
2021/04/25 14:05:18;;;;;;;0.00;0.00;;;;;;;;;;5042266;28;20017;-70
2021/04/25 14:07:43;;;;;;;0.00;0.00;;;;;;;;;;5040660;28;20021;-70
2021/04/25 14:10:19;;;;;;;0.00;0.00;;;;;;;;;;5042849;28;20044;-70
2021/04/25 14:12:44;;;;;;;0.00;0.00;;;;;;;;;;5025767;28;20279;-71
2021/04/25 14:15:11;;;;;;;0.00;0.00;;;;;;;;;;5026733;28;20029;-70
2021/04/25 14:17:36;;;;;;;0.00;0.00;;;;;;;;;;5042106;28;20489;-69
2021/04/25 14:20:04;;;;;;;0.00;0.00;;;;;;;;;;5023055;28;20033;-69
2021/04/25 14:22:29;;;;;;;0.00;0.00;;;;;;;;;;5039332;28;20088;-69
2021/04/25 14:24:54;;;;;;;0.00;0.00;;;;;;;;;;5047928;28;20540;-69
2021/04/25 14:27:20;;;;;;;0.00;0.00;;;;;;;;;;5043176;28;20056;-70
2021/04/25 14:29:45;;;;;;;0.00;0.00;;;;;;;;;;5041791;28;20385;-69
2021/04/25 14:32:11;;;;;;;0.00;0.00;;;;;;;;;;5048853;28;20024;-69
2021/04/25 14:34:36;;;;;;;0.00;0.00;;;;;;;;;;5051113;28;20024;-69
2021/04/25 14:37:01;;;;;;;0.00;0.00;;;;;;;;;;5048830;28;20286;-69
2021/04/25 14:39:26;;;;;;;0.00;0.00;;;;;;;;;;5027402;28;20296;-69
2021/04/25 14:41:52;;;;;;;0.00;0.00;;;;;;;;;;5044525;28;20043;-69
2021/04/25 14:44:17;;;;;;;0.00;0.00;;;;;;;;;;5042718;28;20030;-68
2021/04/25 14:46:42;;;;;;;0.00;0.00;;;;;;;;;;5041118;28;20021;-68
2021/04/25 14:49:07;;;;;;;0.00;0.00;;;;;;;;;;5042252;28;20427;-68
2021/04/25 14:51:33;;;;;;;0.00;0.00;;;;;;;;;;5042458;28;20354;-68
2021/04/25 14:54:00;;;;;;;0.00;0.00;;;;;;;;;;5039419;28;20329;-68
2021/04/25 14:56:25;;;;;;;0.00;0.00;;;;;;;;;;5038125;28;20043;-67
2021/04/25 14:58:51;;;;;;;0.00;0.00;;;;;;;;;;5039342;28;20033;-68
2021/04/25 15:01:16;;;;;;;0.00;0.00;;;;;;;;;;5024455;28;20447;-68
2021/04/25 15:03:42;;;;;;;0.00;0.00;;;;;;;;;;5022496;28;20728;-69
2021/04/25 15:06:09;;;;;;;0.00;0.00;;;;;;;;;;5042233;28;20027;-69
2021/04/25 15:08:34;;;;;;;0.00;0.00;;;;;;;;;;5044154;28;20485;-69
2021/04/25 15:10:59;;;;;;;0.00;0.00;;;;;;;;;;5023994;28;20020;-69
2021/04/25 15:13:25;;;;;;;0.00;0.00;;;;;;;;;;5029503;28;20032;-69